sensor_id;sensor_type;location;lat;lon;timestamp;temperature;humidity
43227;DHT22;28839;52.404;9.808;2024-02-16T00:05:15;11.40;99.90
43227;DHT22;28839;52.404;9.808;2024-02-16T00:12:09;11.40;99.90
43227;DHT22;28839;52.404;9.808;2024-02-16T00:19:03;11.30;99.90
43227;DHT22;28839;52.404;9.808;2024-02-16T00:25:58;11.20;99.90
43227;DHT22;28839;52.404;9.808;2024-02-16T00:32:53;11.30;99.90
43227;DHT22;28839;52.404;9.808;2024-02-16T00:39:46;11.40;99.90
43227;DHT22;28839;52.404;9.808;2024-02-16T00:46:41;11.30;99.90
43227;DHT22;28839;52.404;9.808;2024-02-16T00:53:35;11.50;99.90
43227;DHT22;28839;52.404;9.808;2024-02-16T01:00:30;11.30;99.90
43227;DHT22;28839;52.404;9.808;2024-02-16T01:07:25;11.10;99.90
43227;DHT22;28839;52.404;9.808;2024-02-16T01:14:18;11.10;99.90
43227;DHT22;28839;52.404;9.808;2024-02-16T01:21:12;10.70;99.90
43227;DHT22;28839;52.404;9.808;2024-02-16T01:28:07;10.50;99.90
43227;DHT22;28839;52.404;9.808;2024-02-16T01:35:01;10.50;99.90
43227;DHT22;28839;52.404;9.808;2024-02-16T01:41:55;10.50;99.90
43227;DHT22;28839;52.404;9.808;2024-02-16T01:48:50;10.60;99.90
43227;DHT22;28839;52.404;9.808;2024-02-16T01:55:45;10.80;99.90
43227;DHT22;28839;52.404;9.808;2024-02-16T02:02:39;10.70;99.90
43227;DHT22;28839;52.404;9.808;2024-02-16T02:09:34;10.50;99.90
43227;DHT22;28839;52.404;9.808;2024-02-16T02:16:27;10.40;99.90
43227;DHT22;28839;52.404;9.808;2024-02-16T02:23:22;10.40;99.90
43227;DHT22;28839;52.404;9.808;2024-02-16T02:30:16;10.40;99.90
43227;DHT22;28839;52.404;9.808;2024-02-16T02:37:10;10.40;99.90
43227;DHT22;28839;52.404;9.808;2024-02-16T02:44:06;10.50;99.90
43227;DHT22;28839;52.404;9.808;2024-02-16T02:50:59;10.60;99.90
43227;DHT22;28839;52.404;9.808;2024-02-16T02:57:53;10.80;99.90
43227;DHT22;28839;52.404;9.808;2024-02-16T03:04:48;11.20;99.90
43227;DHT22;28839;52.404;9.808;2024-02-16T03:11:42;11.50;99.90
43227;DHT22;28839;52.404;9.808;2024-02-16T03:18:36;11.50;99.90
43227;DHT22;28839;52.404;9.808;2024-02-16T03:25:31;11.60;99.90
43227;DHT22;28839;52.404;9.808;2024-02-16T03:32:25;11.70;99.90
43227;DHT22;28839;52.404;9.808;2024-02-16T03:39:18;11.60;99.90
43227;DHT22;28839;52.404;9.808;2024-02-16T03:46:14;11.60;99.90
43227;DHT22;28839;52.404;9.808;2024-02-16T03:53:07;11.60;99.90
43227;DHT22;28839;52.404;9.808;2024-02-16T04:00:01;11.60;99.90
43227;DHT22;28839;52.404;9.808;2024-02-16T04:06:59;11.50;99.90
43227;DHT22;28839;52.404;9.808;2024-02-16T04:13:53;11.60;99.90
43227;DHT22;28839;52.404;9.808;2024-02-16T04:20:46;11.50;99.90
43227;DHT22;28839;52.404;9.808;2024-02-16T04:27:41;11.50;99.90
43227;DHT22;28839;52.404;9.808;2024-02-16T04:34:35;11.60;99.90
43227;DHT22;28839;52.404;9.808;2024-02-16T04:41:29;11.50;99.90
43227;DHT22;28839;52.404;9.808;2024-02-16T04:48:24;11.60;99.90
43227;DHT22;28839;52.404;9.808;2024-02-16T04:55:18;11.70;99.90
43227;DHT22;28839;52.404;9.808;2024-02-16T05:02:11;11.70;99.90
43227;DHT22;28839;52.404;9.808;2024-02-16T05:09:07;11.70;99.90
43227;DHT22;28839;52.404;9.808;2024-02-16T05:16:01;11.80;99.90
43227;DHT22;28839;52.404;9.808;2024-02-16T05:22:55;11.90;99.90
43227;DHT22;28839;52.404;9.808;2024-02-16T05:29:50;11.80;99.90
43227;DHT22;28839;52.404;9.808;2024-02-16T05:36:44;11.80;99.90
43227;DHT22;28839;52.404;9.808;2024-02-16T05:43:38;11.90;99.90
43227;DHT22;28839;52.404;9.808;2024-02-16T05:50:33;11.80;99.90
43227;DHT22;28839;52.404;9.808;2024-02-16T05:57:27;11.70;99.90
43227;DHT22;28839;52.404;9.808;2024-02-16T06:04:20;11.70;99.90
43227;DHT22;28839;52.404;9.808;2024-02-16T06:11:15;11.60;99.90
43227;DHT22;28839;52.404;9.808;2024-02-16T06:18:09;11.60;99.90
43227;DHT22;28839;52.404;9.808;2024-02-16T06:25:03;11.60;99.90
43227;DHT22;28839;52.404;9.808;2024-02-16T06:31:59;11.60;99.90
43227;DHT22;28839;52.404;9.808;2024-02-16T06:38:54;11.60;99.90
43227;DHT22;28839;52.404;9.808;2024-02-16T06:45:48;11.50;99.90
43227;DHT22;28839;52.404;9.808;2024-02-16T06:52:43;11.50;99.90
43227;DHT22;28839;52.404;9.808;2024-02-16T06:59:37;11.70;99.90
43227;DHT22;28839;52.404;9.808;2024-02-16T07:06:30;11.70;99.90
43227;DHT22;28839;52.404;9.808;2024-02-16T07:13:26;11.80;99.90
43227;DHT22;28839;52.404;9.808;2024-02-16T07:20:19;11.90;99.90
43227;DHT22;28839;52.404;9.808;2024-02-16T07:27:13;11.90;99.90
43227;DHT22;28839;52.404;9.808;2024-02-16T07:34:08;11.80;99.90
43227;DHT22;28839;52.404;9.808;2024-02-16T07:41:04;11.90;99.90
43227;DHT22;28839;52.404;9.808;2024-02-16T07:47:58;12.10;99.90
43227;DHT22;28839;52.404;9.808;2024-02-16T07:54:56;12.40;99.90
43227;DHT22;28839;52.404;9.808;2024-02-16T08:01:50;12.50;99.90
43227;DHT22;28839;52.404;9.808;2024-02-16T08:08:44;12.80;99.90
43227;DHT22;28839;52.404;9.808;2024-02-16T08:15:39;13.30;99.90
43227;DHT22;28839;52.404;9.808;2024-02-16T08:22:33;13.30;99.90
43227;DHT22;28839;52.404;9.808;2024-02-16T08:29:27;13.50;99.90
43227;DHT22;28839;52.404;9.808;2024-02-16T08:36:23;13.60;99.90
43227;DHT22;28839;52.404;9.808;2024-02-16T08:43:20;13.30;99.90
43227;DHT22;28839;52.404;9.808;2024-02-16T08:50:14;13.20;99.90
43227;DHT22;28839;52.404;9.808;2024-02-16T08:57:09;13.20;99.90
43227;DHT22;28839;52.404;9.808;2024-02-16T09:04:03;13.20;99.90
43227;DHT22;28839;52.404;9.808;2024-02-16T09:10:57;13.30;99.90
43227;DHT22;28839;52.404;9.808;2024-02-16T09:17:56;13.40;99.90
43227;DHT22;28839;52.404;9.808;2024-02-16T09:24:50;13.40;99.90
43227;DHT22;28839;52.404;9.808;2024-02-16T09:31:44;13.50;99.90
43227;DHT22;28839;52.404;9.808;2024-02-16T09:38:39;13.50;99.90
43227;DHT22;28839;52.404;9.808;2024-02-16T09:45:33;13.70;99.90
43227;DHT22;28839;52.404;9.808;2024-02-16T09:52:27;13.90;99.90
43227;DHT22;28839;52.404;9.808;2024-02-16T09:59:22;14.20;99.90
43227;DHT22;28839;52.404;9.808;2024-02-16T10:06:16;14.40;99.90
43227;DHT22;28839;52.404;9.808;2024-02-16T10:13:13;14.50;99.80
43227;DHT22;28839;52.404;9.808;2024-02-16T10:20:09;14.50;99.90
43227;DHT22;28839;52.404;9.808;2024-02-16T10:27:03;14.40;99.90
43227;DHT22;28839;52.404;9.808;2024-02-16T10:33:59;14.40;99.90
43227;DHT22;28839;52.404;9.808;2024-02-16T10:40:57;14.40;99.90
43227;DHT22;28839;52.404;9.808;2024-02-16T10:47:53;14.50;99.90
43227;DHT22;28839;52.404;9.808;2024-02-16T10:54:47;14.50;99.90
43227;DHT22;28839;52.404;9.808;2024-02-16T11:01:44;14.60;99.90
43227;DHT22;28839;52.404;9.808;2024-02-16T11:08:38;14.70;99.90
43227;DHT22;28839;52.404;9.808;2024-02-16T11:15:33;14.70;99.90
43227;DHT22;28839;52.404;9.808;2024-02-16T11:22:29;14.90;99.90
43227;DHT22;28839;52.404;9.808;2024-02-16T11:29:24;14.90;99.90
43227;DHT22;28839;52.404;9.808;2024-02-16T11:36:18;14.80;99.90
43227;DHT22;28839;52.404;9.808;2024-02-16T11:43:21;14.80;99.90
43227;DHT22;28839;52.404;9.808;2024-02-16T11:50:17;15.10;99.90
43227;DHT22;28839;52.404;9.808;2024-02-16T11:57:12;15.40;99.90
43227;DHT22;28839;52.404;9.808;2024-02-16T12:04:08;15.70;99.90
43227;DHT22;28839;52.404;9.808;2024-02-16T12:11:12;16.40;98.80
43227;DHT22;28839;52.404;9.808;2024-02-16T12:18:06;16.60;96.30
43227;DHT22;28839;52.404;9.808;2024-02-16T12:25:02;16.70;96.20
43227;DHT22;28839;52.404;9.808;2024-02-16T12:31:55;16.80;95.00
43227;DHT22;28839;52.404;9.808;2024-02-16T12:38:49;16.70;94.60
43227;DHT22;28839;52.404;9.808;2024-02-16T12:45:44;17.00;94.20
43227;DHT22;28839;52.404;9.808;2024-02-16T12:52:38;16.90;96.40
43227;DHT22;28839;52.404;9.808;2024-02-16T12:59:32;16.50;98.00
43227;DHT22;28839;52.404;9.808;2024-02-16T13:06:27;16.30;99.90
43227;DHT22;28839;52.404;9.808;2024-02-16T13:13:21;16.20;99.90
43227;DHT22;28839;52.404;9.808;2024-02-16T13:20:14;16.00;99.90
43227;DHT22;28839;52.404;9.808;2024-02-16T13:27:09;15.70;99.90
43227;DHT22;28839;52.404;9.808;2024-02-16T13:34:03;15.50;99.90
43227;DHT22;28839;52.404;9.808;2024-02-16T13:40:57;15.50;99.90
43227;DHT22;28839;52.404;9.808;2024-02-16T13:47:52;15.50;99.90
43227;DHT22;28839;52.404;9.808;2024-02-16T13:54:46;15.40;99.90
43227;DHT22;28839;52.404;9.808;2024-02-16T14:01:40;15.40;99.90
43227;DHT22;28839;52.404;9.808;2024-02-16T14:08:35;15.40;99.90
43227;DHT22;28839;52.404;9.808;2024-02-16T14:15:29;15.30;99.90
43227;DHT22;28839;52.404;9.808;2024-02-16T14:22:23;15.30;99.90
43227;DHT22;28839;52.404;9.808;2024-02-16T14:29:18;15.40;99.90
43227;DHT22;28839;52.404;9.808;2024-02-16T14:36:12;15.40;99.90
43227;DHT22;28839;52.404;9.808;2024-02-16T14:43:06;15.30;99.90
43227;DHT22;28839;52.404;9.808;2024-02-16T14:50:01;15.30;99.90
43227;DHT22;28839;52.404;9.808;2024-02-16T14:56:56;15.30;99.90
43227;DHT22;28839;52.404;9.808;2024-02-16T15:03:49;15.30;99.90
43227;DHT22;28839;52.404;9.808;2024-02-16T15:10:45;15.30;99.90
43227;DHT22;28839;52.404;9.808;2024-02-16T15:17:39;15.30;99.90
43227;DHT22;28839;52.404;9.808;2024-02-16T15:24:33;15.20;99.90
43227;DHT22;28839;52.404;9.808;2024-02-16T15:31:28;15.20;99.90
43227;DHT22;28839;52.404;9.808;2024-02-16T15:38:22;15.10;99.90
43227;DHT22;28839;52.404;9.808;2024-02-16T15:45:15;15.00;99.90
43227;DHT22;28839;52.404;9.808;2024-02-16T15:52:12;14.80;99.90
43227;DHT22;28839;52.404;9.808;2024-02-16T15:59:06;14.70;99.90
43227;DHT22;28839;52.404;9.808;2024-02-16T16:05:59;14.50;99.90
43227;DHT22;28839;52.404;9.808;2024-02-16T16:12:55;14.20;99.90
43227;DHT22;28839;52.404;9.808;2024-02-16T16:19:48;14.00;99.90
43227;DHT22;28839;52.404;9.808;2024-02-16T16:26:42;13.80;99.90
43227;DHT22;28839;52.404;9.808;2024-02-16T16:33:38;13.70;99.90
43227;DHT22;28839;52.404;9.808;2024-02-16T16:40:32;13.60;99.90
43227;DHT22;28839;52.404;9.808;2024-02-16T16:47:27;13.60;99.90
43227;DHT22;28839;52.404;9.808;2024-02-16T16:54:22;13.50;99.90
43227;DHT22;28839;52.404;9.808;2024-02-16T17:01:16;13.50;99.90
43227;DHT22;28839;52.404;9.808;2024-02-16T17:08:10;13.40;99.90
43227;DHT22;28839;52.404;9.808;2024-02-16T17:15:05;13.40;99.90
43227;DHT22;28839;52.404;9.808;2024-02-16T17:22:00;13.40;99.90
43227;DHT22;28839;52.404;9.808;2024-02-16T17:28:55;13.30;99.90
43227;DHT22;28839;52.404;9.808;2024-02-16T17:35:50;13.30;99.90
43227;DHT22;28839;52.404;9.808;2024-02-16T17:42:44;13.20;99.90
43227;DHT22;28839;52.404;9.808;2024-02-16T17:49:39;13.10;99.90
43227;DHT22;28839;52.404;9.808;2024-02-16T17:56:34;13.10;99.90
43227;DHT22;28839;52.404;9.808;2024-02-16T18:03:29;13.00;99.90
43227;DHT22;28839;52.404;9.808;2024-02-16T18:10:22;12.90;99.90
43227;DHT22;28839;52.404;9.808;2024-02-16T18:17:18;12.80;99.90
43227;DHT22;28839;52.404;9.808;2024-02-16T18:24:11;12.80;99.90
43227;DHT22;28839;52.404;9.808;2024-02-16T18:31:05;12.80;99.90
43227;DHT22;28839;52.404;9.808;2024-02-16T18:38:00;12.70;99.90
43227;DHT22;28839;52.404;9.808;2024-02-16T18:44:54;12.70;99.90
43227;DHT22;28839;52.404;9.808;2024-02-16T18:51:50;12.60;99.90
43227;DHT22;28839;52.404;9.808;2024-02-16T18:58:45;12.60;99.90
43227;DHT22;28839;52.404;9.808;2024-02-16T19:05:39;12.60;99.90
43227;DHT22;28839;52.404;9.808;2024-02-16T19:12:33;12.50;99.90
43227;DHT22;28839;52.404;9.808;2024-02-16T19:19:28;12.40;99.90
43227;DHT22;28839;52.404;9.808;2024-02-16T19:26:23;12.40;99.90
43227;DHT22;28839;52.404;9.808;2024-02-16T19:33:18;12.40;99.90
43227;DHT22;28839;52.404;9.808;2024-02-16T19:40:13;12.20;99.90
43227;DHT22;28839;52.404;9.808;2024-02-16T19:47:07;12.20;99.90
43227;DHT22;28839;52.404;9.808;2024-02-16T19:54:01;12.20;99.90
43227;DHT22;28839;52.404;9.808;2024-02-16T20:00:57;12.20;99.90
43227;DHT22;28839;52.404;9.808;2024-02-16T20:07:50;12.00;99.90
43227;DHT22;28839;52.404;9.808;2024-02-16T20:14:44;12.00;99.90
43227;DHT22;28839;52.404;9.808;2024-02-16T20:21:39;11.90;99.90
43227;DHT22;28839;52.404;9.808;2024-02-16T20:28:33;11.90;99.90
43227;DHT22;28839;52.404;9.808;2024-02-16T20:35:27;11.90;99.90
43227;DHT22;28839;52.404;9.808;2024-02-16T20:42:22;11.90;99.90
43227;DHT22;28839;52.404;9.808;2024-02-16T20:49:16;11.80;99.90
43227;DHT22;28839;52.404;9.808;2024-02-16T20:56:10;11.70;99.90
43227;DHT22;28839;52.404;9.808;2024-02-16T21:03:05;11.70;99.90
43227;DHT22;28839;52.404;9.808;2024-02-16T21:09:59;11.60;99.90
43227;DHT22;28839;52.404;9.808;2024-02-16T21:16:53;11.70;99.90
43227;DHT22;28839;52.404;9.808;2024-02-16T21:23:48;11.60;99.90
43227;DHT22;28839;52.404;9.808;2024-02-16T21:30:42;11.60;99.90
43227;DHT22;28839;52.404;9.808;2024-02-16T21:37:35;11.60;99.90
43227;DHT22;28839;52.404;9.808;2024-02-16T21:44:30;11.60;99.90
43227;DHT22;28839;52.404;9.808;2024-02-16T21:51:25;11.50;99.90
43227;DHT22;28839;52.404;9.808;2024-02-16T21:58:19;11.60;99.90
43227;DHT22;28839;52.404;9.808;2024-02-16T22:05:14;11.50;99.90
43227;DHT22;28839;52.404;9.808;2024-02-16T22:12:08;11.40;99.90
43227;DHT22;28839;52.404;9.808;2024-02-16T22:19:02;11.40;99.90
43227;DHT22;28839;52.404;9.808;2024-02-16T22:25:57;11.40;99.90
43227;DHT22;28839;52.404;9.808;2024-02-16T22:32:51;11.30;99.90
43227;DHT22;28839;52.404;9.808;2024-02-16T22:39:44;11.30;99.90
43227;DHT22;28839;52.404;9.808;2024-02-16T22:46:40;11.30;99.90
43227;DHT22;28839;52.404;9.808;2024-02-16T22:53:33;11.30;99.90
43227;DHT22;28839;52.404;9.808;2024-02-16T23:00:27;11.30;99.90
43227;DHT22;28839;52.404;9.808;2024-02-16T23:07:26;11.30;99.90
43227;DHT22;28839;52.404;9.808;2024-02-16T23:14:20;11.30;99.90
43227;DHT22;28839;52.404;9.808;2024-02-16T23:21:14;11.30;99.90
43227;DHT22;28839;52.404;9.808;2024-02-16T23:28:10;11.20;99.90
43227;DHT22;28839;52.404;9.808;2024-02-16T23:35:07;11.20;99.90
43227;DHT22;28839;52.404;9.808;2024-02-16T23:42:01;11.20;99.90
43227;DHT22;28839;52.404;9.808;2024-02-16T23:48:56;11.20;99.90
43227;DHT22;28839;52.404;9.808;2024-02-16T23:55:50;11.20;99.90
